»·PEaware :: DAL171 KEKO-KSLC

DAL171 :: KEKO-KSLC

FLIGHT INFORMATION

Flight Status: Arrived
Operator:
Delta Air Lines
More flights by this operator :: More flights under this callsign
Pilot: Tim M. (868)
Aircraft: BOEING 737-700
(B737)
More flights by this aircraft type
Origin: KEKO Elko Regl
United States
Destination: KSLC Salt Lake City Intl
United States
More flights between these airports :: More routes between these airports
Route: BQU V32 BVL WAATS5
File this flight plan on PilotEdge
Remarks:
Altitude:
(Current/Filed)
17,000ft
Speed:
(Current/Filed)
316kts
Departed: 22-Aug-20 10:33 AM
Arrived: 22-Aug-20 11:16 AM
Distance/Time
Traveled:
173nm/0:43
Distance/Time
To Go:
Arrived

Flight Plot

Page will automatically refresh every two minutes.

Flight plan parsing failed; only flown route is shown


Map Options




Map Legend


Flown Route
Filed Route
Departure Airport
Arrival Airport
Navaid (VOR, NDB)
Fix

Horizontal Profiles

Position Reports

Time Latitude Longitude Heading Altitude Ground
Speed
22-Aug-20 09:46 40.827323 -115.786793 37 5148ft 0kts
22-Aug-20 09:47 40.827323 -115.786793 37 5148ft 0kts
22-Aug-20 09:48 40.827323 -115.786793 37 5148ft 0kts
22-Aug-20 09:49 40.827323 -115.786793 37 5148ft 0kts
22-Aug-20 09:50 40.827323 -115.786793 37 5148ft 0kts
22-Aug-20 09:51 40.827323 -115.786793 37 5148ft 0kts
22-Aug-20 09:52 40.827323 -115.786793 37 5148ft 0kts
22-Aug-20 09:53 40.827323 -115.786793 37 5148ft 0kts
22-Aug-20 09:54 40.827323 -115.786793 37 5148ft 0kts
22-Aug-20 09:55 40.827323 -115.786793 37 5148ft 0kts
22-Aug-20 09:56 40.827323 -115.786793 37 5148ft 0kts
22-Aug-20 09:57 40.827323 -115.786793 37 5148ft 0kts
22-Aug-20 09:58 40.827323 -115.786793 37 5148ft 0kts
22-Aug-20 09:59 40.827323 -115.786793 37 5148ft 0kts
22-Aug-20 10:00 40.827323 -115.786793 37 5148ft 0kts
22-Aug-20 10:01 40.827323 -115.786793 37 5148ft 0kts
22-Aug-20 10:02 40.827323 -115.786793 37 5148ft 0kts
22-Aug-20 10:03 40.827323 -115.786793 37 5148ft 0kts
22-Aug-20 10:04 40.827323 -115.786793 37 5148ft 0kts
22-Aug-20 10:05 40.827323 -115.786793 37 5148ft 0kts
22-Aug-20 10:06 40.827323 -115.786793 37 5148ft 0kts
22-Aug-20 10:07 40.827323 -115.786793 37 5148ft 0kts
22-Aug-20 10:08 40.827323 -115.786793 37 5148ft 0kts
22-Aug-20 10:09 40.827323 -115.786793 37 5148ft 0kts
22-Aug-20 10:10 40.827323 -115.786793 37 5148ft 0kts
22-Aug-20 10:11 40.827323 -115.786793 37 5148ft 0kts
22-Aug-20 10:12 40.827323 -115.786793 37 5148ft 0kts
22-Aug-20 10:13 40.827323 -115.786793 37 5148ft 0kts
22-Aug-20 10:14 40.827323 -115.786793 37 5148ft 0kts
22-Aug-20 10:15 40.827323 -115.786793 37 5148ft 0kts
22-Aug-20 10:16 40.827323 -115.786793 37 5148ft 0kts
22-Aug-20 10:17 40.827323 -115.786793 37 5148ft 0kts
22-Aug-20 10:18 40.827323 -115.786793 37 5148ft 0kts
22-Aug-20 10:19 40.827323 -115.786793 37 5148ft 0kts
22-Aug-20 10:20 40.827323 -115.786793 37 5148ft 0kts
22-Aug-20 10:21 40.827323 -115.786793 37 5148ft 0kts
22-Aug-20 10:22 40.827237 -115.786888 40 5148ft 2kts
22-Aug-20 10:23 40.826695 -115.787164 339 5148ft 2kts
22-Aug-20 10:24 40.826179 -115.786910 339 5148ft 0kts
22-Aug-20 10:25 40.826179 -115.786910 339 5148ft 0kts
22-Aug-20 10:26 40.826209 -115.786925 339 5148ft 2kts
22-Aug-20 10:27 40.826400 -115.785082 68 5148ft 8kts
22-Aug-20 10:28 40.827262 -115.782216 70 5148ft 7kts
22-Aug-20 10:29 40.827707 -115.779713 66 5148ft 6kts
22-Aug-20 10:30 40.826563 -115.780430 250 5148ft 5kts
22-Aug-20 10:31 40.826521 -115.780578 249 5148ft 5kts
22-Aug-20 10:32 40.817288 -115.811533 248 5621ft 159kts
22-Aug-20 10:33 40.779319 -115.828049 138 7566ft 220kts
22-Aug-20 10:34 40.758359 -115.737202 93 8844ft 300kts
22-Aug-20 10:35 40.758155 -115.621976 92 11777ft 343kts
22-Aug-20 10:36 40.756964 -115.486036 93 14350ft 385kts
22-Aug-20 10:37 40.755188 -115.341921 93 16812ft 399kts
22-Aug-20 10:38 40.753827 -115.188893 92 16987ft 431kts
22-Aug-20 10:39 40.751800 -115.030904 92 16974ft 431kts
22-Aug-20 10:40 40.749755 -114.872669 93 16960ft 431kts
22-Aug-20 10:41 40.746914 -114.714494 93 16944ft 431kts
22-Aug-20 10:42 40.744061 -114.555898 93 16930ft 432kts
22-Aug-20 10:43 40.740601 -114.397902 93 16915ft 432kts
22-Aug-20 10:44 40.737138 -114.239663 93 16905ft 432kts
22-Aug-20 10:45 40.734138 -114.081065 93 16900ft 432kts
22-Aug-20 10:46 40.730263 -113.922547 93 16899ft 432kts
22-Aug-20 10:47 40.726185 -113.764182 93 16900ft 432kts
22-Aug-20 10:48 40.725554 -113.605936 91 16899ft 432kts
22-Aug-20 10:49 40.725155 -113.447307 91 16899ft 432kts
22-Aug-20 10:50 40.724553 -113.288924 91 16899ft 432kts
22-Aug-20 10:51 40.724686 -113.130418 92 16897ft 432kts
22-Aug-20 10:52 40.723504 -112.971720 92 16891ft 432kts
22-Aug-20 10:53 40.722413 -112.813272 91 16892ft 432kts
22-Aug-20 10:54 40.720948 -112.655585 92 16890ft 421kts
22-Aug-20 10:55 40.719130 -112.505017 93 16889ft 407kts
22-Aug-20 10:56 40.714562 -112.358930 94 14625ft 392kts
22-Aug-20 10:57 40.711712 -112.218285 88 12132ft 372kts
22-Aug-20 10:58 40.752239 -112.109475 33 11981ft 316kts
22-Aug-20 10:59 40.827913 -112.099071 346 11974ft 254kts
22-Aug-20 11:00 40.897177 -112.109225 353 12008ft 251kts
22-Aug-20 11:01 40.966640 -112.117362 353 12024ft 251kts
22-Aug-20 11:02 41.036394 -112.125687 353 12036ft 251kts
22-Aug-20 11:03 41.105817 -112.134014 353 12028ft 251kts
22-Aug-20 11:04 41.175593 -112.140573 10 11365ft 250kts
22-Aug-20 11:05 41.188937 -112.071138 142 10126ft 224kts
22-Aug-20 11:06 41.137796 -112.031670 152 9096ft 199kts
22-Aug-20 11:07 41.089159 -112.008922 173 7956ft 178kts
22-Aug-20 11:08 41.040619 -112.002901 176 7603ft 170kts
22-Aug-20 11:09 40.993374 -111.999377 177 7428ft 170kts
22-Aug-20 11:10 40.949842 -111.993892 175 6911ft 152kts
22-Aug-20 11:11 40.908589 -111.989163 175 6166ft 149kts
22-Aug-20 11:12 40.867410 -111.984017 175 5276ft 150kts
22-Aug-20 11:13 40.825792 -111.979136 174 4619ft 149kts
22-Aug-20 11:14 40.789517 -111.974867 175 4235ft 75kts
22-Aug-20 11:15 40.780549 -111.974776 204 4235ft 0kts
22-Aug-20 11:16 40.779818 -111.975815 356 4235ft 11kts
22-Aug-20 11:17 40.782780 -111.976162 352 4235ft 10kts
22-Aug-20 11:19 40.786112 -111.976535 352 4235ft 13kts
22-Aug-20 11:20 40.789750 -111.976965 355 4235ft 14kts
22-Aug-20 11:21 40.789136 -111.979801 172 4235ft 10kts
22-Aug-20 11:22 40.787430 -111.978797 152 4235ft 2kts
22-Aug-20 11:23 40.787394 -111.978772 152 4235ft 0kts
22-Aug-20 11:24 40.787394 -111.978772 152 4235ft 0kts
22-Aug-20 11:25 40.787394 -111.978772 152 4235ft 0kts
22-Aug-20 11:26 40.787394 -111.978772 152 4235ft 0kts
22-Aug-20 11:27 40.787394 -111.978772 152 4235ft 0kts
22-Aug-20 11:28 40.787394 -111.978772 152 4235ft 0kts

Navigation Log

Ident Type
Flight plan parsing failed, navigation log unavailable